Levante — 9HOB7 — position and weather

sailwx.info

Track history (hours):
 
Tides and Currents Weather Stations Pressure Air Temp Water Temp Dewpoint Dewpoint Depression Visibility Wind Speed Wind Dir Waves Ship Positions

Levante

Last reported at 2015-May-22 11:33 UTC. Time now 2015-May-22 13:03 UTC.
Position S 33°55' E 018°26'.

Length 188.3 m; beam 28 m; draft 10.1 m.

Type: Ship. MMSI: 215440000.

Date/timePositionNaut miles runAvg speedWind from/ knotsBaromVisibWave heightAir tempDewpointWater temp
2015-May-22 11:33S 33°55' E 018°26'0 0.0
2015-May-22 10:30S 33°55' E 018°26'0 0.0
2015-May-22 09:33S 33°55' E 018°26'2 1.8
2015-May-22 08:32S 33°53' E 018°26'3 3.4
2015-May-22 07:33S 33°52' E 018°22'159 9.8
2015-May-21 15:18S 34°47' E 021°23'24811.3
2015-May-20 17:26S 34°00' E 026°18'8213.1
2015-May-20 11:12S 33°20' E 027°43'1014.5
2015-May-20 10:29S 33°15' E 027°54'1514.2
2015-May-20 09:25S 33°05' E 028°08'20012.3
2015-May-19 17:14S 30°35' E 030°43'913.3
2015-May-19 16:33S 30°27' E 030°48'1313.0
2015-May-19 15:33S 30°15' E 030°55'1312.7
2015-May-19 14:33S 30°04' E 031°02'1212.5
2015-May-19 13:33S 29°52' E 031°07'4 3.7
2015-May-19 12:32S 29°52' E 031°02'0 0.0
2015-May-19 11:32S 29°52' E 031°02'0 0.0
2015-May-19 10:32S 29°52' E 031°02'0 0.0
2015-May-19 09:20S 29°52' E 031°02'0 0.0
2015-May-19 08:32S 29°52' E 031°02'0 0.0
2015-May-19 07:32S 29°52' E 031°02'0 0.0
2015-May-19 06:26S 29°52' E 031°02'0 0.0
2015-May-19 05:14S 29°52' E 031°02'0 0.0
2015-May-19 04:26S 29°52' E 031°02'0 0.0
2015-May-19 03:26S 29°52' E 031°02'0 0.0
2015-May-19 02:32S 29°52' E 031°02'0 0.0
2015-May-19 00:32S 29°52' E 031°02'0 0.0
2015-May-18 23:26S 29°52' E 031°02'0 0.0
2015-May-18 22:14S 29°52' E 031°02'0 0.0
2015-May-18 21:20S 29°52' E 031°02'0 0.0
2015-May-18 20:32S 29°52' E 031°02'0 0.0
2015-May-18 19:14S 29°52' E 031°02'0 0.0
2015-May-18 18:20S 29°52' E 031°02'0 0.0
2015-May-18 17:32S 29°52' E 031°02'  
2015-May-14 11:31S 28°47' E 032°02'0 0.0
2015-May-14 00:29S 28°47' E 032°02'0 0.0
2015-May-13 23:10S 28°47' E 032°02'0 0.0
2015-May-13 22:22S 28°47' E 032°02'0 0.0
2015-May-13 21:28S 28°47' E 032°02'0 0.0
2015-May-13 20:28S 28°47' E 032°02'0 0.0
2015-May-13 17:28S 28°47' E 032°02'5 4.1
2015-May-13 16:14S 28°49' E 032°07'8 9.2
2015-May-13 15:23S 28°57' E 032°07'1111.9
2015-May-13 14:29S 29°05' E 031°58'1112.2
2015-May-13 13:33S 29°12' E 031°49'1812.7
2015-May-13 12:09S 29°25' E 031°34'812.9
2015-May-13 11:33S 29°31' E 031°28'1313.1
2015-May-13 10:33S 29°41' E 031°18'1313.0
2015-May-13 09:33S 29°49' E 031°07'7 6.8
2015-May-13 08:32S 29°53' E 031°00'0 0.2
2015-May-13 07:27S 29°53' E 031°00'0 0.0
2015-May-13 06:27S 29°53' E 031°00'0 0.0
2015-May-13 05:27S 29°53' E 031°00'0 0.0
2015-May-13 04:33S 29°53' E 031°00'0 0.0
2015-May-13 02:15S 29°53' E 031°00'0 0.0
2015-May-13 01:09S 29°53' E 031°00'0 0.0
2015-May-12 20:33S 29°53' E 031°00'0 0.0
2015-May-12 19:03S 29°53' E 031°00'0 0.0
2015-May-12 16:03S 29°53' E 031°00'0 0.0
2015-May-12 14:33S 29°53' E 031°00'0 0.0
2015-May-12 13:21S 29°53' E 031°00'0 0.0
2015-May-12 12:33S 29°53' E 031°00'  
Track history (hours):
 
Tides and Currents Weather Stations Pressure Air Temp Water Temp Dewpoint Dewpoint Depression Visibility Wind Speed Wind Dir Waves Ship Positions

Levante

Last reported at 2015-May-22 11:33 UTC. Time now 2015-May-22 13:03 UTC.
Position S 33°55' E 018°26'.

Length 188.3 m; beam 28 m; draft 10.1 m.

Type: Ship. MMSI: 215440000.

Date/timePositionNaut miles runAvg speedWind from/ knotsBaromVisibWave heightAir tempDewpointWater temp
2015-May-22 11:33S 33°55' E 018°26'0 0.0
2015-May-22 10:30S 33°55' E 018°26'0 0.0
2015-May-22 09:33S 33°55' E 018°26'2 1.8
2015-May-22 08:32S 33°53' E 018°26'3 3.4
2015-May-22 07:33S 33°52' E 018°22'159 9.8
2015-May-21 15:18S 34°47' E 021°23'24811.3
2015-May-20 17:26S 34°00' E 026°18'8213.1
2015-May-20 11:12S 33°20' E 027°43'1014.5
2015-May-20 10:29S 33°15' E 027°54'1514.2
2015-May-20 09:25S 33°05' E 028°08'20012.3
2015-May-19 17:14S 30°35' E 030°43'913.3
2015-May-19 16:33S 30°27' E 030°48'1313.0
2015-May-19 15:33S 30°15' E 030°55'1312.7
2015-May-19 14:33S 30°04' E 031°02'1212.5
2015-May-19 13:33S 29°52' E 031°07'4 3.7
2015-May-19 12:32S 29°52' E 031°02'0 0.0
2015-May-19 11:32S 29°52' E 031°02'0 0.0
2015-May-19 10:32S 29°52' E 031°02'0 0.0
2015-May-19 09:20S 29°52' E 031°02'0 0.0
2015-May-19 08:32S 29°52' E 031°02'0 0.0
2015-May-19 07:32S 29°52' E 031°02'0 0.0
2015-May-19 06:26S 29°52' E 031°02'0 0.0
2015-May-19 05:14S 29°52' E 031°02'0 0.0
2015-May-19 04:26S 29°52' E 031°02'0 0.0
2015-May-19 03:26S 29°52' E 031°02'0 0.0
2015-May-19 02:32S 29°52' E 031°02'0 0.0
2015-May-19 00:32S 29°52' E 031°02'0 0.0
2015-May-18 23:26S 29°52' E 031°02'0 0.0
2015-May-18 22:14S 29°52' E 031°02'0 0.0
2015-May-18 21:20S 29°52' E 031°02'0 0.0
2015-May-18 20:32S 29°52' E 031°02'0 0.0
2015-May-18 19:14S 29°52' E 031°02'0 0.0
2015-May-18 18:20S 29°52' E 031°02'0 0.0
2015-May-18 17:32S 29°52' E 031°02'  
2015-May-14 11:31S 28°47' E 032°02'0 0.0
2015-May-14 00:29S 28°47' E 032°02'0 0.0
2015-May-13 23:10S 28°47' E 032°02'0 0.0
2015-May-13 22:22S 28°47' E 032°02'0 0.0
2015-May-13 21:28S 28°47' E 032°02'0 0.0
2015-May-13 20:28S 28°47' E 032°02'0 0.0
2015-May-13 17:28S 28°47' E 032°02'5 4.1
2015-May-13 16:14S 28°49' E 032°07'8 9.2
2015-May-13 15:23S 28°57' E 032°07'1111.9
2015-May-13 14:29S 29°05' E 031°58'1112.2
2015-May-13 13:33S 29°12' E 031°49'1812.7
2015-May-13 12:09S 29°25' E 031°34'812.9
2015-May-13 11:33S 29°31' E 031°28'1313.1
2015-May-13 10:33S 29°41' E 031°18'1313.0
2015-May-13 09:33S 29°49' E 031°07'7 6.8
2015-May-13 08:32S 29°53' E 031°00'0 0.2
2015-May-13 07:27S 29°53' E 031°00'0 0.0
2015-May-13 06:27S 29°53' E 031°00'0 0.0
2015-May-13 05:27S 29°53' E 031°00'0 0.0
2015-May-13 04:33S 29°53' E 031°00'0 0.0
2015-May-13 02:15S 29°53' E 031°00'0 0.0
2015-May-13 01:09S 29°53' E 031°00'0 0.0
2015-May-12 20:33S 29°53' E 031°00'0 0.0
2015-May-12 19:03S 29°53' E 031°00'0 0.0
2015-May-12 16:03S 29°53' E 031°00'0 0.0
2015-May-12 14:33S 29°53' E 031°00'0 0.0
2015-May-12 13:21S 29°53' E 031°00'0 0.0
2015-May-12 12:33S 29°53' E 031°00'  

Dump ship's entire track history